sensor_id;sensor_type;location;lat;lon;timestamp;pressure;altitude;pressure_sealevel;temperature
71807;BMP280;59655;42.590;23.364;2023-07-16T00:00:29;91872.06;;;24.33
71807;BMP280;59655;42.590;23.364;2023-07-16T00:02:54;91864.69;;;24.36
71807;BMP280;59655;42.590;23.364;2023-07-16T00:05:20;91860.59;;;24.35
71807;BMP280;59655;42.590;23.364;2023-07-16T00:07:45;91870.03;;;24.34
71807;BMP280;59655;42.590;23.364;2023-07-16T00:10:11;91870.66;;;24.32
71807;BMP280;59655;42.590;23.364;2023-07-16T00:12:38;91869.13;;;24.27
71807;BMP280;59655;42.590;23.364;2023-07-16T00:15:04;91860.13;;;24.23
71807;BMP280;59655;42.590;23.364;2023-07-16T00:17:30;91859.19;;;24.16
71807;BMP280;59655;42.590;23.364;2023-07-16T00:19:55;91868.78;;;24.19
71807;BMP280;59655;42.590;23.364;2023-07-16T00:22:20;91866.56;;;24.13
71807;BMP280;59655;42.590;23.364;2023-07-16T00:24:46;91856.34;;;24.12
71807;BMP280;59655;42.590;23.364;2023-07-16T00:27:11;91871.97;;;24.13
71807;BMP280;59655;42.590;23.364;2023-07-16T00:29:36;91863.09;;;24.11
71807;BMP280;59655;42.590;23.364;2023-07-16T00:32:02;91857.50;;;24.07
71807;BMP280;59655;42.590;23.364;2023-07-16T00:34:28;91865.47;;;24.03
71807;BMP280;59655;42.590;23.364;2023-07-16T00:36:53;91860.66;;;24.01
71807;BMP280;59655;42.590;23.364;2023-07-16T00:39:18;91853.00;;;23.95
71807;BMP280;59655;42.590;23.364;2023-07-16T00:41:44;91860.06;;;23.85
71807;BMP280;59655;42.590;23.364;2023-07-16T00:44:09;91863.38;;;23.83
71807;BMP280;59655;42.590;23.364;2023-07-16T00:46:35;91857.94;;;23.83
71807;BMP280;59655;42.590;23.364;2023-07-16T00:49:01;91863.28;;;23.81
71807;BMP280;59655;42.590;23.364;2023-07-16T00:51:27;91862.84;;;23.87
71807;BMP280;59655;42.590;23.364;2023-07-16T00:53:53;91862.19;;;23.88
71807;BMP280;59655;42.590;23.364;2023-07-16T00:56:18;91863.91;;;23.80
71807;BMP280;59655;42.590;23.364;2023-07-16T00:58:44;91865.38;;;23.83
71807;BMP280;59655;42.590;23.364;2023-07-16T01:01:10;91862.47;;;23.79
71807;BMP280;59655;42.590;23.364;2023-07-16T01:03:35;91868.00;;;23.81
71807;BMP280;59655;42.590;23.364;2023-07-16T01:06:28;91849.59;;;23.77
71807;BMP280;59655;42.590;23.364;2023-07-16T01:09:02;91854.22;;;23.75
71807;BMP280;59655;42.590;23.364;2023-07-16T01:11:28;91853.38;;;23.70
71807;BMP280;59655;42.590;23.364;2023-07-16T01:13:55;91851.94;;;23.69
71807;BMP280;59655;42.590;23.364;2023-07-16T01:16:23;91855.91;;;23.66
71807;BMP280;59655;42.590;23.364;2023-07-16T01:18:49;91853.09;;;23.64
71807;BMP280;59655;42.590;23.364;2023-07-16T01:21:15;91853.63;;;23.60
71807;BMP280;59655;42.590;23.364;2023-07-16T01:24:04;91858.91;;;23.56
71807;BMP280;59655;42.590;23.364;2023-07-16T01:29:33;91847.72;;;23.48
71807;BMP280;59655;42.590;23.364;2023-07-16T01:32:02;91840.91;;;23.47
71807;BMP280;59655;42.590;23.364;2023-07-16T01:34:31;91846.88;;;23.43
71807;BMP280;59655;42.590;23.364;2023-07-16T01:37:01;91846.19;;;23.43
71807;BMP280;59655;42.590;23.364;2023-07-16T01:39:27;91840.06;;;23.42
71807;BMP280;59655;42.590;23.364;2023-07-16T01:41:53;91840.44;;;23.35
71807;BMP280;59655;42.590;23.364;2023-07-16T01:44:18;91849.19;;;23.33
71807;BMP280;59655;42.590;23.364;2023-07-16T01:46:44;91843.03;;;23.33
71807;BMP280;59655;42.590;23.364;2023-07-16T01:49:09;91844.03;;;23.24
71807;BMP280;59655;42.590;23.364;2023-07-16T01:51:34;91849.69;;;23.30
71807;BMP280;59655;42.590;23.364;2023-07-16T01:54:00;91850.91;;;23.27
71807;BMP280;59655;42.590;23.364;2023-07-16T01:56:25;91852.06;;;23.21
71807;BMP280;59655;42.590;23.364;2023-07-16T01:58:51;91853.19;;;23.16
71807;BMP280;59655;42.590;23.364;2023-07-16T02:01:17;91862.19;;;23.05
71807;BMP280;59655;42.590;23.364;2023-07-16T02:03:42;91858.03;;;23.02
71807;BMP280;59655;42.590;23.364;2023-07-16T02:06:08;91842.66;;;23.07
71807;BMP280;59655;42.590;23.364;2023-07-16T02:08:33;91856.53;;;22.99
71807;BMP280;59655;42.590;23.364;2023-07-16T02:10:59;91849.97;;;23.04
71807;BMP280;59655;42.590;23.364;2023-07-16T02:13:24;91856.72;;;23.03
71807;BMP280;59655;42.590;23.364;2023-07-16T02:15:49;91852.25;;;22.94
71807;BMP280;59655;42.590;23.364;2023-07-16T02:18:15;91850.34;;;22.96
71807;BMP280;59655;42.590;23.364;2023-07-16T02:20:40;91849.47;;;22.92
71807;BMP280;59655;42.590;23.364;2023-07-16T02:23:06;91845.53;;;22.95
71807;BMP280;59655;42.590;23.364;2023-07-16T02:25:32;91847.44;;;22.92
71807;BMP280;59655;42.590;23.364;2023-07-16T02:27:57;91846.66;;;22.90
71807;BMP280;59655;42.590;23.364;2023-07-16T02:30:23;91851.19;;;22.85
71807;BMP280;59655;42.590;23.364;2023-07-16T02:32:48;91844.41;;;22.84
71807;BMP280;59655;42.590;23.364;2023-07-16T02:35:14;91846.31;;;22.82
71807;BMP280;59655;42.590;23.364;2023-07-16T02:37:39;91853.13;;;22.83
71807;BMP280;59655;42.590;23.364;2023-07-16T02:40:06;91852.59;;;22.70
71807;BMP280;59655;42.590;23.364;2023-07-16T02:42:32;91857.13;;;22.66
71807;BMP280;59655;42.590;23.364;2023-07-16T02:44:57;91858.84;;;22.59
71807;BMP280;59655;42.590;23.364;2023-07-16T02:47:22;91849.78;;;22.53
71807;BMP280;59655;42.590;23.364;2023-07-16T02:49:51;91854.22;;;22.46
71807;BMP280;59655;42.590;23.364;2023-07-16T02:52:17;91855.63;;;22.47
71807;BMP280;59655;42.590;23.364;2023-07-16T02:54:42;91860.25;;;22.44
71807;BMP280;59655;42.590;23.364;2023-07-16T02:57:08;91854.03;;;22.42
71807;BMP280;59655;42.590;23.364;2023-07-16T02:59:33;91850.34;;;22.35
71807;BMP280;59655;42.590;23.364;2023-07-16T03:01:59;91850.34;;;22.35
71807;BMP280;59655;42.590;23.364;2023-07-16T03:04:24;91854.47;;;22.36
71807;BMP280;59655;42.590;23.364;2023-07-16T03:06:50;91857.66;;;22.33
71807;BMP280;59655;42.590;23.364;2023-07-16T03:09:15;91861.63;;;22.30
71807;BMP280;59655;42.590;23.364;2023-07-16T03:11:40;91855.13;;;22.21
71807;BMP280;59655;42.590;23.364;2023-07-16T03:14:06;91853.13;;;22.21
71807;BMP280;59655;42.590;23.364;2023-07-16T03:16:31;91858.09;;;22.27
71807;BMP280;59655;42.590;23.364;2023-07-16T03:18:57;91855.19;;;22.23
71807;BMP280;59655;42.590;23.364;2023-07-16T03:21:22;91858.53;;;22.21
71807;BMP280;59655;42.590;23.364;2023-07-16T03:23:47;91858.34;;;22.17
71807;BMP280;59655;42.590;23.364;2023-07-16T03:26:13;91861.31;;;22.23
71807;BMP280;59655;42.590;23.364;2023-07-16T03:28:38;91863.50;;;22.27
71807;BMP280;59655;42.590;23.364;2023-07-16T03:31:04;91864.72;;;22.24
71807;BMP280;59655;42.590;23.364;2023-07-16T03:33:29;91864.03;;;22.23
71807;BMP280;59655;42.590;23.364;2023-07-16T03:35:54;91874.22;;;22.25
71807;BMP280;59655;42.590;23.364;2023-07-16T03:38:20;91875.66;;;22.26
71807;BMP280;59655;42.590;23.364;2023-07-16T03:40:49;91874.22;;;22.25
71807;BMP280;59655;42.590;23.364;2023-07-16T03:43:16;91875.69;;;22.12
71807;BMP280;59655;42.590;23.364;2023-07-16T03:45:41;91878.69;;;22.05
71807;BMP280;59655;42.590;23.364;2023-07-16T03:48:07;91878.19;;;22.08
71807;BMP280;59655;42.590;23.364;2023-07-16T03:50:33;91872.91;;;22.10
71807;BMP280;59655;42.590;23.364;2023-07-16T03:52:59;91880.50;;;22.14
71807;BMP280;59655;42.590;23.364;2023-07-16T03:55:24;91881.38;;;22.18
71807;BMP280;59655;42.590;23.364;2023-07-16T03:57:50;91884.09;;;22.18
71807;BMP280;59655;42.590;23.364;2023-07-16T04:00:15;91875.97;;;22.18
71807;BMP280;59655;42.590;23.364;2023-07-16T04:02:41;91876.06;;;22.20
71807;BMP280;59655;42.590;23.364;2023-07-16T04:05:07;91880.34;;;22.26
71807;BMP280;59655;42.590;23.364;2023-07-16T04:07:32;91882.00;;;22.33
71807;BMP280;59655;42.590;23.364;2023-07-16T04:09:58;91879.38;;;22.35
71807;BMP280;59655;42.590;23.364;2023-07-16T04:12:23;91879.38;;;22.35
71807;BMP280;59655;42.590;23.364;2023-07-16T04:14:49;91887.50;;;22.35
71807;BMP280;59655;42.590;23.364;2023-07-16T04:17:14;91884.22;;;22.36
71807;BMP280;59655;42.590;23.364;2023-07-16T04:19:40;91879.69;;;22.41
71807;BMP280;59655;42.590;23.364;2023-07-16T04:22:05;91887.91;;;22.43
71807;BMP280;59655;42.590;23.364;2023-07-16T04:24:31;91893.22;;;22.41
71807;BMP280;59655;42.590;23.364;2023-07-16T04:26:58;91894.69;;;22.44
71807;BMP280;59655;42.590;23.364;2023-07-16T04:29:23;91888.00;;;22.45
71807;BMP280;59655;42.590;23.364;2023-07-16T04:31:49;91890.19;;;22.48
71807;BMP280;59655;42.590;23.364;2023-07-16T04:34:14;91894.97;;;22.50
71807;BMP280;59655;42.590;23.364;2023-07-16T04:36:42;91903.28;;;22.54
71807;BMP280;59655;42.590;23.364;2023-07-16T04:39:08;91899.44;;;22.59
71807;BMP280;59655;42.590;23.364;2023-07-16T04:41:33;91898.22;;;22.62
71807;BMP280;59655;42.590;23.364;2023-07-16T04:43:59;91892.94;;;22.64
71807;BMP280;59655;42.590;23.364;2023-07-16T04:46:24;91893.69;;;22.67
71807;BMP280;59655;42.590;23.364;2023-07-16T04:48:50;91893.00;;;22.66
71807;BMP280;59655;42.590;23.364;2023-07-16T04:51:15;91892.41;;;22.68
71807;BMP280;59655;42.590;23.364;2023-07-16T04:53:40;91893.28;;;22.72
71807;BMP280;59655;42.590;23.364;2023-07-16T04:56:12;91896.16;;;22.77
71807;BMP280;59655;42.590;23.364;2023-07-16T04:58:37;91894.84;;;22.78
71807;BMP280;59655;42.590;23.364;2023-07-16T05:01:03;91901.75;;;22.81
71807;BMP280;59655;42.590;23.364;2023-07-16T05:03:28;91899.84;;;22.83
71807;BMP280;59655;42.590;23.364;2023-07-16T05:05:53;91902.63;;;22.85
71807;BMP280;59655;42.590;23.364;2023-07-16T05:08:19;91904.94;;;22.91
71807;BMP280;59655;42.590;23.364;2023-07-16T05:10:45;91911.09;;;22.93
71807;BMP280;59655;42.590;23.364;2023-07-16T05:13:10;91909.28;;;22.98
71807;BMP280;59655;42.590;23.364;2023-07-16T05:15:37;91910.06;;;23.01
71807;BMP280;59655;42.590;23.364;2023-07-16T05:18:02;91910.25;;;23.05
71807;BMP280;59655;42.590;23.364;2023-07-16T05:20:28;91907.03;;;23.08
71807;BMP280;59655;42.590;23.364;2023-07-16T05:22:53;91911.84;;;23.10
71807;BMP280;59655;42.590;23.364;2023-07-16T05:25:19;91912.09;;;23.16
71807;BMP280;59655;42.590;23.364;2023-07-16T05:27:44;91910.06;;;23.16
71807;BMP280;59655;42.590;23.364;2023-07-16T05:30:10;91903.44;;;23.19
71807;BMP280;59655;42.590;23.364;2023-07-16T05:32:36;91907.53;;;23.20
71807;BMP280;59655;42.590;23.364;2023-07-16T05:35:05;91911.84;;;23.26
71807;BMP280;59655;42.590;23.364;2023-07-16T05:37:31;91916.00;;;23.29
71807;BMP280;59655;42.590;23.364;2023-07-16T05:39:56;91916.06;;;23.31
71807;BMP280;59655;42.590;23.364;2023-07-16T05:42:21;91914.88;;;23.34
71807;BMP280;59655;42.590;23.364;2023-07-16T05:44:47;91917.75;;;23.38
71807;BMP280;59655;42.590;23.364;2023-07-16T05:47:13;91913.84;;;23.41
71807;BMP280;59655;42.590;23.364;2023-07-16T05:49:38;91917.91;;;23.42
71807;BMP280;59655;42.590;23.364;2023-07-16T05:52:04;91926.94;;;23.46
71807;BMP280;59655;42.590;23.364;2023-07-16T05:54:29;91926.41;;;23.50
71807;BMP280;59655;42.590;23.364;2023-07-16T05:56:55;91932.69;;;23.55
71807;BMP280;59655;42.590;23.364;2023-07-16T05:59:21;91926.66;;;23.56
71807;BMP280;59655;42.590;23.364;2023-07-16T06:01:46;91934.28;;;23.60
71807;BMP280;59655;42.590;23.364;2023-07-16T06:04:12;91931.00;;;23.63
71807;BMP280;59655;42.590;23.364;2023-07-16T06:06:37;91935.91;;;23.67
71807;BMP280;59655;42.590;23.364;2023-07-16T06:09:02;91931.97;;;23.70
71807;BMP280;59655;42.590;23.364;2023-07-16T06:11:28;91930.03;;;23.73
71807;BMP280;59655;42.590;23.364;2023-07-16T06:13:54;91934.84;;;23.74
71807;BMP280;59655;42.590;23.364;2023-07-16T06:16:20;91932.91;;;23.77
71807;BMP280;59655;42.590;23.364;2023-07-16T06:18:45;91937.88;;;23.82
71807;BMP280;59655;42.590;23.364;2023-07-16T06:21:11;91937.34;;;23.86
71807;BMP280;59655;42.590;23.364;2023-07-16T06:23:37;91940.13;;;23.88
71807;BMP280;59655;42.590;23.364;2023-07-16T06:26:03;91933.47;;;23.91
71807;BMP280;59655;42.590;23.364;2023-07-16T06:28:28;91934.19;;;23.91
71807;BMP280;59655;42.590;23.364;2023-07-16T06:30:53;91934.94;;;23.94
71807;BMP280;59655;42.590;23.364;2023-07-16T06:33:22;91930.34;;;23.97
71807;BMP280;59655;42.590;23.364;2023-07-16T06:35:48;91930.47;;;24.01
71807;BMP280;59655;42.590;23.364;2023-07-16T06:38:14;91927.16;;;24.02
71807;BMP280;59655;42.590;23.364;2023-07-16T06:40:45;91932.03;;;24.06
71807;BMP280;59655;42.590;23.364;2023-07-16T06:43:10;91934.94;;;24.10
71807;BMP280;59655;42.590;23.364;2023-07-16T06:45:35;91938.34;;;24.10
71807;BMP280;59655;42.590;23.364;2023-07-16T06:48:01;91935.78;;;24.14
71807;BMP280;59655;42.590;23.364;2023-07-16T06:50:26;91931.75;;;24.15
71807;BMP280;59655;42.590;23.364;2023-07-16T06:52:51;91927.72;;;24.16
71807;BMP280;59655;42.590;23.364;2023-07-16T06:55:17;91928.47;;;24.19
71807;BMP280;59655;42.590;23.364;2023-07-16T06:57:42;91930.75;;;24.25
71807;BMP280;59655;42.590;23.364;2023-07-16T07:00:08;91938.25;;;24.26
71807;BMP280;59655;42.590;23.364;2023-07-16T07:02:36;91931.63;;;24.29
71807;BMP280;59655;42.590;23.364;2023-07-16T07:05:02;91937.09;;;24.31
71807;BMP280;59655;42.590;23.364;2023-07-16T07:07:27;91938.56;;;24.34
71807;BMP280;59655;42.590;23.364;2023-07-16T07:09:53;91937.97;;;24.36
71807;BMP280;59655;42.590;23.364;2023-07-16T07:12:18;91942.16;;;24.39
71807;BMP280;59655;42.590;23.364;2023-07-16T07:14:43;91930.69;;;24.40
71807;BMP280;59655;42.590;23.364;2023-07-16T07:17:09;91930.09;;;24.44
71807;BMP280;59655;42.590;23.364;2023-07-16T07:19:34;91934.31;;;24.47
71807;BMP280;59655;42.590;23.364;2023-07-16T07:22:00;91929.06;;;24.51
71807;BMP280;59655;42.590;23.364;2023-07-16T07:24:25;91937.25;;;24.53
71807;BMP280;59655;42.590;23.364;2023-07-16T07:26:51;91934.59;;;24.55
71807;BMP280;59655;42.590;23.364;2023-07-16T07:29:16;91933.41;;;24.58
71807;BMP280;59655;42.590;23.364;2023-07-16T07:31:41;91930.69;;;24.58
71807;BMP280;59655;42.590;23.364;2023-07-16T07:34:07;91927.19;;;24.56
71807;BMP280;59655;42.590;23.364;2023-07-16T07:36:32;91936.19;;;24.60
71807;BMP280;59655;42.590;23.364;2023-07-16T07:38:58;91935.63;;;24.64
71807;BMP280;59655;42.590;23.364;2023-07-16T07:41:23;91935.00;;;24.65
71807;BMP280;59655;42.590;23.364;2023-07-16T07:43:48;91933.06;;;24.68
71807;BMP280;59655;42.590;23.364;2023-07-16T07:46:14;91935.16;;;24.69
71807;BMP280;59655;42.590;23.364;2023-07-16T07:48:39;91926.38;;;24.71
71807;BMP280;59655;42.590;23.364;2023-07-16T07:51:05;91930.50;;;24.72
71807;BMP280;59655;42.590;23.364;2023-07-16T07:53:30;91926.47;;;24.73
71807;BMP280;59655;42.590;23.364;2023-07-16T07:55:56;91932.69;;;24.76
71807;BMP280;59655;42.590;23.364;2023-07-16T07:58:22;91936.84;;;24.79
71807;BMP280;59655;42.590;23.364;2023-07-16T08:00:48;91939.75;;;24.83
71807;BMP280;59655;42.590;23.364;2023-07-16T08:03:13;91939.09;;;24.84
71807;BMP280;59655;42.590;23.364;2023-07-16T08:05:39;91936.00;;;24.74
71807;BMP280;59655;42.590;23.364;2023-07-16T08:08:04;91937.47;;;24.77
71807;BMP280;59655;42.590;23.364;2023-07-16T08:10:30;91938.94;;;24.80
71807;BMP280;59655;42.590;23.364;2023-07-16T08:12:55;91936.44;;;24.86
71807;BMP280;59655;42.590;23.364;2023-07-16T08:15:20;91937.94;;;24.89
71807;BMP280;59655;42.590;23.364;2023-07-16T08:17:46;91929.16;;;24.91
71807;BMP280;59655;42.590;23.364;2023-07-16T08:20:11;91935.97;;;24.92
71807;BMP280;59655;42.590;23.364;2023-07-16T08:22:38;91937.44;;;24.95
71807;BMP280;59655;42.590;23.364;2023-07-16T08:25:05;91939.63;;;24.99
71807;BMP280;59655;42.590;23.364;2023-07-16T08:27:30;91936.91;;;24.99
71807;BMP280;59655;42.590;23.364;2023-07-16T08:29:56;91943.09;;;25.01
71807;BMP280;59655;42.590;23.364;2023-07-16T08:32:22;91945.88;;;25.03
71807;BMP280;59655;42.590;23.364;2023-07-16T08:34:48;91945.88;;;25.03
71807;BMP280;59655;42.590;23.364;2023-07-16T08:37:14;91943.16;;;25.03
71807;BMP280;59655;42.590;23.364;2023-07-16T08:39:39;91936.56;;;25.08
71807;BMP280;59655;42.590;23.364;2023-07-16T08:42:05;91939.97;;;25.09
71807;BMP280;59655;42.590;23.364;2023-07-16T08:44:31;91941.38;;;25.10
71807;BMP280;59655;42.590;23.364;2023-07-16T08:46:57;91948.25;;;25.13
71807;BMP280;59655;42.590;23.364;2023-07-16T08:49:23;91942.88;;;25.15
71807;BMP280;59655;42.590;23.364;2023-07-16T08:51:49;91938.88;;;25.16
71807;BMP280;59655;42.590;23.364;2023-07-16T08:54:15;91945.75;;;25.19
71807;BMP280;59655;42.590;23.364;2023-07-16T08:56:43;91933.63;;;25.22
71807;BMP280;59655;42.590;23.364;2023-07-16T08:59:10;91937.00;;;25.20
71807;BMP280;59655;42.590;23.364;2023-07-16T09:01:36;91936.44;;;25.24
71807;BMP280;59655;42.590;23.364;2023-07-16T09:04:02;91941.88;;;25.24
71807;BMP280;59655;42.590;23.364;2023-07-16T09:06:27;91940.63;;;25.27
71807;BMP280;59655;42.590;23.364;2023-07-16T09:08:53;91932.53;;;25.29
71807;BMP280;59655;42.590;23.364;2023-07-16T09:11:18;91938.88;;;25.36
71807;BMP280;59655;42.590;23.364;2023-07-16T09:13:46;91940.91;;;25.35
71807;BMP280;59655;42.590;23.364;2023-07-16T09:16:12;91930.72;;;25.36
71807;BMP280;59655;42.590;23.364;2023-07-16T09:18:40;91937.00;;;25.40
71807;BMP280;59655;42.590;23.364;2023-07-16T09:21:06;91928.22;;;25.42
71807;BMP280;59655;42.590;23.364;2023-07-16T09:23:32;91929.56;;;25.41
71807;BMP280;59655;42.590;23.364;2023-07-16T09:25:58;91932.31;;;25.43
71807;BMP280;59655;42.590;23.364;2023-07-16T09:28:23;91933.22;;;25.50
71807;BMP280;59655;42.590;23.364;2023-07-16T09:30:50;91928.50;;;25.50
71807;BMP280;59655;42.590;23.364;2023-07-16T09:33:18;91928.03;;;25.56
71807;BMP280;59655;42.590;23.364;2023-07-16T09:35:50;91932.75;;;25.55
71807;BMP280;59655;42.590;23.364;2023-07-16T09:38:17;91931.41;;;25.56
71807;BMP280;59655;42.590;23.364;2023-07-16T09:40:42;91931.50;;;25.58
71807;BMP280;59655;42.590;23.364;2023-07-16T09:43:09;91924.34;;;25.69
71807;BMP280;59655;42.590;23.364;2023-07-16T09:45:35;91926.53;;;25.73
71807;BMP280;59655;42.590;23.364;2023-07-16T09:48:01;91925.28;;;25.76
71807;BMP280;59655;42.590;23.364;2023-07-16T09:50:32;91921.81;;;25.73
71807;BMP280;59655;42.590;23.364;2023-07-16T09:52:58;91922.75;;;25.82
71807;BMP280;59655;42.590;23.364;2023-07-16T09:55:24;91924.06;;;25.81
71807;BMP280;59655;42.590;23.364;2023-07-16T09:57:53;91931.09;;;25.88
71807;BMP280;59655;42.590;23.364;2023-07-16T10:00:21;91918.91;;;25.89
71807;BMP280;59655;42.590;23.364;2023-07-16T10:02:47;91920.50;;;25.96
71807;BMP280;59655;42.590;23.364;2023-07-16T10:05:17;91919.41;;;26.05
71807;BMP280;59655;42.590;23.364;2023-07-16T10:07:50;91915.53;;;26.12
71807;BMP280;59655;42.590;23.364;2023-07-16T10:10:16;91915.41;;;26.08
71807;BMP280;59655;42.590;23.364;2023-07-16T10:12:53;91908.00;;;26.11
71807;BMP280;59655;42.590;23.364;2023-07-16T10:15:28;91906.75;;;26.14
71807;BMP280;59655;42.590;23.364;2023-07-16T10:17:54;91908.84;;;26.15
71807;BMP280;59655;42.590;23.364;2023-07-16T10:20:35;91913.78;;;26.21
71807;BMP280;59655;42.590;23.364;2023-07-16T10:23:14;91919.84;;;26.19
71807;BMP280;59655;42.590;23.364;2023-07-16T10:25:40;91904.78;;;26.16
71807;BMP280;59655;42.590;23.364;2023-07-16T10:28:06;91907.13;;;26.26
71807;BMP280;59655;42.590;23.364;2023-07-16T10:30:33;91909.28;;;26.30
71807;BMP280;59655;42.590;23.364;2023-07-16T10:33:03;91901.91;;;26.34
71807;BMP280;59655;42.590;23.364;2023-07-16T10:35:28;91902.06;;;26.38
71807;BMP280;59655;42.590;23.364;2023-07-16T10:37:54;91896.59;;;26.38
71807;BMP280;59655;42.590;23.364;2023-07-16T10:40:19;91895.19;;;26.37
71807;BMP280;59655;42.590;23.364;2023-07-16T10:42:45;91891.13;;;26.36
71807;BMP280;59655;42.590;23.364;2023-07-16T10:45:12;91899.31;;;26.38
71807;BMP280;59655;42.590;23.364;2023-07-16T10:47:39;91898.13;;;26.67
71807;BMP280;59655;42.590;23.364;2023-07-16T10:50:07;91904.50;;;26.76
71807;BMP280;59655;42.590;23.364;2023-07-16T10:52:33;91895.56;;;26.73
71807;BMP280;59655;42.590;23.364;2023-07-16T10:54:59;91899.38;;;26.64
71807;BMP280;59655;42.590;23.364;2023-07-16T10:57:25;91897.97;;;26.61
71807;BMP280;59655;42.590;23.364;2023-07-16T10:59:52;91896.63;;;26.62
71807;BMP280;59655;42.590;23.364;2023-07-16T11:02:18;91887.81;;;26.64
71807;BMP280;59655;42.590;23.364;2023-07-16T11:04:45;91900.81;;;26.65
71807;BMP280;59655;42.590;23.364;2023-07-16T11:07:12;91894.69;;;26.67
71807;BMP280;59655;42.590;23.364;2023-07-16T11:09:41;91896.09;;;26.68
71807;BMP280;59655;42.590;23.364;2023-07-16T11:12:16;91896.91;;;26.72
71807;BMP280;59655;42.590;23.364;2023-07-16T11:14:51;91888.66;;;26.70
71807;BMP280;59655;42.590;23.364;2023-07-16T11:17:17;91898.25;;;26.71
71807;BMP280;59655;42.590;23.364;2023-07-16T11:19:49;91894.28;;;26.77
71807;BMP280;59655;42.590;23.364;2023-07-16T11:22:16;91899.16;;;26.80
71807;BMP280;59655;42.590;23.364;2023-07-16T11:24:47;91890.41;;;26.84
71807;BMP280;59655;42.590;23.364;2023-07-16T11:27:17;91893.28;;;26.90
71807;BMP280;59655;42.590;23.364;2023-07-16T11:29:53;91890.56;;;26.90
71807;BMP280;59655;42.590;23.364;2023-07-16T11:32:46;91887.22;;;26.91
71807;BMP280;59655;42.590;23.364;2023-07-16T11:35:20;91891.50;;;26.98
71807;BMP280;59655;42.590;23.364;2023-07-16T11:37:46;91897.66;;;26.99
71807;BMP280;59655;42.590;23.364;2023-07-16T11:40:17;91890.13;;;26.99
71807;BMP280;59655;42.590;23.364;2023-07-16T11:42:43;91888.19;;;27.02
71807;BMP280;59655;42.590;23.364;2023-07-16T11:45:29;91889.09;;;27.11
71807;BMP280;59655;42.590;23.364;2023-07-16T11:47:55;91887.50;;;27.28
71807;BMP280;59655;42.590;23.364;2023-07-16T11:50:20;91884.72;;;27.25
71807;BMP280;59655;42.590;23.364;2023-07-16T11:52:53;91882.63;;;27.24
71807;BMP280;59655;42.590;23.364;2023-07-16T11:55:19;91892.22;;;27.25
71807;BMP280;59655;42.590;23.364;2023-07-16T11:57:44;91892.72;;;27.19
71807;BMP280;59655;42.590;23.364;2023-07-16T12:00:10;91880.38;;;27.16
71807;BMP280;59655;42.590;23.364;2023-07-16T12:02:36;91891.22;;;27.14
71807;BMP280;59655;42.590;23.364;2023-07-16T12:05:02;91884.41;;;27.13
71807;BMP280;59655;42.590;23.364;2023-07-16T12:07:35;91879.59;;;27.12
71807;BMP280;59655;42.590;23.364;2023-07-16T12:10:02;91887.13;;;27.13
71807;BMP280;59655;42.590;23.364;2023-07-16T12:12:28;91880.66;;;27.27
71807;BMP280;59655;42.590;23.364;2023-07-16T12:14:54;91882.63;;;27.24
71807;BMP280;59655;42.590;23.364;2023-07-16T12:17:19;91880.53;;;27.22
71807;BMP280;59655;42.590;23.364;2023-07-16T12:19:45;91877.81;;;27.22
71807;BMP280;59655;42.590;23.364;2023-07-16T12:22:10;91877.13;;;27.22
71807;BMP280;59655;42.590;23.364;2023-07-16T12:24:36;91872.47;;;27.27
71807;BMP280;59655;42.590;23.364;2023-07-16T12:27:01;91874.13;;;27.38
71807;BMP280;59655;42.590;23.364;2023-07-16T12:29:27;91871.72;;;27.50
71807;BMP280;59655;42.590;23.364;2023-07-16T12:31:53;91872.00;;;27.62
71807;BMP280;59655;42.590;23.364;2023-07-16T12:34:18;91867.91;;;27.91
71807;BMP280;59655;42.590;23.364;2023-07-16T12:36:43;91862.16;;;28.07
71807;BMP280;59655;42.590;23.364;2023-07-16T12:39:09;91869.97;;;28.23
71807;BMP280;59655;42.590;23.364;2023-07-16T12:41:34;91855.59;;;28.54
71807;BMP280;59655;42.590;23.364;2023-07-16T12:44:00;91859.50;;;28.77
71807;BMP280;59655;42.590;23.364;2023-07-16T12:46:25;91869.91;;;29.23
71807;BMP280;59655;42.590;23.364;2023-07-16T12:48:51;91870.31;;;29.92
71807;BMP280;59655;42.590;23.364;2023-07-16T12:51:16;91861.06;;;30.68
71807;BMP280;59655;42.590;23.364;2023-07-16T12:53:41;91852.03;;;31.24
71807;BMP280;59655;42.590;23.364;2023-07-16T12:56:09;91858.63;;;31.76
71807;BMP280;59655;42.590;23.364;2023-07-16T12:58:34;91854.31;;;32.70
71807;BMP280;59655;42.590;23.364;2023-07-16T13:01:00;91856.44;;;32.98
71807;BMP280;59655;42.590;23.364;2023-07-16T13:03:25;91857.00;;;32.58
71807;BMP280;59655;42.590;23.364;2023-07-16T13:05:50;91850.97;;;33.30
71807;BMP280;59655;42.590;23.364;2023-07-16T13:08:16;91841.31;;;33.48
71807;BMP280;59655;42.590;23.364;2023-07-16T13:10:41;91852.34;;;33.31
71807;BMP280;59655;42.590;23.364;2023-07-16T13:13:07;91853.72;;;33.34
71807;BMP280;59655;42.590;23.364;2023-07-16T13:15:33;91851.00;;;33.49
71807;BMP280;59655;42.590;23.364;2023-07-16T13:17:58;91841.34;;;33.60
71807;BMP280;59655;42.590;23.364;2023-07-16T13:20:24;91848.88;;;33.80
71807;BMP280;59655;42.590;23.364;2023-07-16T13:22:49;91847.47;;;34.03
71807;BMP280;59655;42.590;23.364;2023-07-16T13:25:15;91844.03;;;33.99
71807;BMP280;59655;42.590;23.364;2023-07-16T13:27:41;91847.41;;;34.26
71807;BMP280;59655;42.590;23.364;2023-07-16T13:30:06;91848.69;;;34.47
71807;BMP280;59655;42.590;23.364;2023-07-16T13:32:32;91836.75;;;34.85
71807;BMP280;59655;42.590;23.364;2023-07-16T13:34:58;91841.00;;;34.70
71807;BMP280;59655;42.590;23.364;2023-07-16T13:37:23;91835.53;;;34.58
71807;BMP280;59655;42.590;23.364;2023-07-16T13:39:49;91832.50;;;35.04
71807;BMP280;59655;42.590;23.364;2023-07-16T13:42:14;91832.59;;;34.94
71807;BMP280;59655;42.590;23.364;2023-07-16T13:44:40;91840.81;;;34.98
71807;BMP280;59655;42.590;23.364;2023-07-16T13:47:05;91838.53;;;35.31
71807;BMP280;59655;42.590;23.364;2023-07-16T13:49:30;91833.13;;;35.15
71807;BMP280;59655;42.590;23.364;2023-07-16T13:51:56;91832.50;;;35.04
71807;BMP280;59655;42.590;23.364;2023-07-16T13:54:21;91827.81;;;34.83